Time;durP1;ratioP1;P1;durP2;ratioP2;P2;SDS_P1;SDS_P2;PMS_P1;PMS_P2;Temp;Humidity;BMP_temperature;BMP_pressure;BME280_temperature;BME280_humidity;BME280_pressure;Samples;Min_cycle;Max_cycle;Signal;HPM_P1;HPM_P2
2022/06/30 00:00:12;;;;;;;4.10;3.70;;;;;;;;;;2090787;28;20621;-52
2022/06/30 00:01:13;;;;;;;4.00;3.80;;;;;;;;;;2090096;28;20217;-56
2022/06/30 00:02:13;;;;;;;4.38;4.07;;;;;;;;;;2089382;28;20309;-55
2022/06/30 00:03:13;;;;;;;3.78;3.58;;;;;;;;;;2089541;28;20180;-55
2022/06/30 00:04:14;;;;;;;3.72;3.53;;;;;;;;;;2089515;28;20171;-54
2022/06/30 00:05:14;;;;;;;4.78;4.38;;;;;;;;;;2088341;28;20172;-54
2022/06/30 00:06:14;;;;;;;3.63;3.42;;;;;;;;;;2090425;28;20202;-54
2022/06/30 00:07:15;;;;;;;3.97;3.78;;;;;;;;;;2090099;28;20191;-56
2022/06/30 00:08:15;;;;;;;4.40;3.90;;;;;;;;;;2090022;28;20254;-59
2022/06/30 00:09:16;;;;;;;4.15;3.85;;;;;;;;;;2089503;28;20179;-53
2022/06/30 00:10:16;;;;;;;4.65;4.35;;;;;;;;;;2089657;28;20171;-54
2022/06/30 00:11:16;;;;;;;4.35;4.05;;;;;;;;;;2090263;28;20172;-55
2022/06/30 00:12:17;;;;;;;4.07;3.78;;;;;;;;;;2090567;28;20191;-53
2022/06/30 00:13:17;;;;;;;4.22;4.00;;;;;;;;;;2089570;28;20186;-56
2022/06/30 00:14:17;;;;;;;4.47;4.18;;;;;;;;;;2088865;28;20191;-54
2022/06/30 00:15:17;;;;;;;3.88;3.58;;;;;;;;;;2088955;28;20180;-55
2022/06/30 00:16:18;;;;;;;4.28;3.97;;;;;;;;;;2090027;28;20179;-58
2022/06/30 00:17:18;;;;;;;3.85;3.65;;;;;;;;;;2090104;28;20182;-52
2022/06/30 00:18:19;;;;;;;3.90;3.60;;;;;;;;;;2090213;28;20202;-51
2022/06/30 00:19:19;;;;;;;4.25;3.95;;;;;;;;;;2090067;28;20163;-56
2022/06/30 00:20:20;;;;;;;4.55;4.15;;;;;;;;;;2090350;28;20516;-56
2022/06/30 00:21:20;;;;;;;3.80;3.60;;;;;;;;;;2090258;28;20180;-57
2022/06/30 00:22:21;;;;;;;3.67;3.47;;;;;;;;;;2090257;28;20159;-55
2022/06/30 00:23:21;;;;;;;4.40;4.00;;;;;;;;;;2089619;28;20251;-55
2022/06/30 00:24:21;;;;;;;4.35;3.95;;;;;;;;;;2080647;28;20191;-52
2022/06/30 00:25:22;;;;;;;3.88;3.67;;;;;;;;;;2088937;28;20631;-54
2022/06/30 00:26:22;;;;;;;4.50;4.20;;;;;;;;;;2090128;28;20187;-54
2022/06/30 00:27:23;;;;;;;4.35;3.85;;;;;;;;;;2089469;28;20514;-51
2022/06/30 00:28:23;;;;;;;3.92;3.72;;;;;;;;;;2081070;28;20179;-49
2022/06/30 00:29:24;;;;;;;4.28;4.05;;;;;;;;;;2089689;28;20164;-51
2022/06/30 00:30:24;;;;;;;4.53;4.20;;;;;;;;;;2090067;28;20270;-53
2022/06/30 00:31:25;;;;;;;3.97;3.70;;;;;;;;;;2090061;28;20172;-55
2022/06/30 00:32:26;;;;;;;4.22;4.00;;;;;;;;;;2089338;28;20254;-54
2022/06/30 00:33:27;;;;;;;4.82;4.13;;;;;;;;;;2081279;28;20172;-52
2022/06/30 00:34:27;;;;;;;4.50;4.10;;;;;;;;;;2080258;28;20164;-53
2022/06/30 00:35:28;;;;;;;4.63;4.00;;;;;;;;;;2089625;28;20164;-53
2022/06/30 00:36:28;;;;;;;5.43;4.93;;;;;;;;;;2090021;28;20202;-53
2022/06/30 00:37:28;;;;;;;4.50;4.00;;;;;;;;;;2090115;28;20159;-51
2022/06/30 00:38:29;;;;;;;4.40;4.10;;;;;;;;;;2089947;28;20179;-51
2022/06/30 00:39:29;;;;;;;4.32;4.03;;;;;;;;;;2090021;28;20206;-53
2022/06/30 00:40:40;;;;;;;4.68;4.40;;;;;;;;;;2090018;28;20622;-52
2022/06/30 00:41:40;;;;;;;4.72;4.43;;;;;;;;;;2089705;28;20695;-51
2022/06/30 00:42:40;;;;;;;3.90;3.70;;;;;;;;;;2089389;28;20251;-51
2022/06/30 00:43:41;;;;;;;4.75;4.45;;;;;;;;;;2089896;28;20167;-52
2022/06/30 00:44:42;;;;;;;4.55;4.15;;;;;;;;;;2089175;28;20180;-50
2022/06/30 00:45:43;;;;;;;4.35;4.00;;;;;;;;;;2089843;28;20187;-51
2022/06/30 00:46:43;;;;;;;4.97;4.60;;;;;;;;;;2089926;28;20187;-55
2022/06/30 00:47:44;;;;;;;4.25;3.85;;;;;;;;;;2089652;28;20718;-55
2022/06/30 00:48:44;;;;;;;4.53;4.22;;;;;;;;;;2089064;28;20317;-51
2022/06/30 00:49:45;;;;;;;4.50;4.10;;;;;;;;;;2089372;28;20203;-54
2022/06/30 00:50:45;;;;;;;4.18;3.88;;;;;;;;;;2089950;28;20175;-50
2022/06/30 00:51:46;;;;;;;4.55;4.15;;;;;;;;;;2089814;28;20206;-54
2022/06/30 00:52:49;;;;;;;4.03;3.70;;;;;;;;;;2089986;28;20198;-49
2022/06/30 00:53:50;;;;;;;4.63;4.32;;;;;;;;;;2089787;28;20209;-51
2022/06/30 00:54:52;;;;;;;4.50;4.10;;;;;;;;;;2088774;28;20203;-49
2022/06/30 00:55:52;;;;;;;4.40;4.10;;;;;;;;;;2089943;28;20180;-54
2022/06/30 00:56:54;;;;;;;4.55;4.15;;;;;;;;;;2089757;28;20196;-54
2022/06/30 00:57:56;;;;;;;4.53;4.22;;;;;;;;;;2089729;28;20193;-53
2022/06/30 00:59:00;;;;;;;4.53;4.22;;;;;;;;;;2090011;28;20262;-53
2022/06/30 01:00:01;;;;;;;3.85;3.65;;;;;;;;;;2090015;28;20171;-54
2022/06/30 01:01:04;;;;;;;5.45;4.05;;;;;;;;;;2089020;28;20778;-53
2022/06/30 01:02:05;;;;;;;4.55;4.25;;;;;;;;;;2089446;28;20255;-55
2022/06/30 01:03:06;;;;;;;4.15;3.85;;;;;;;;;;2088139;28;20174;-54
2022/06/30 01:04:07;;;;;;;4.25;4.05;;;;;;;;;;2088648;28;20163;-59
2022/06/30 01:05:07;;;;;;;4.30;3.97;;;;;;;;;;2089939;28;20184;-55
2022/06/30 01:06:08;;;;;;;4.88;4.47;;;;;;;;;;2089663;28;20168;-54
2022/06/30 01:07:09;;;;;;;4.38;4.18;;;;;;;;;;2090039;28;20168;-56
2022/06/30 01:08:09;;;;;;;4.10;3.75;;;;;;;;;;2089831;28;20172;-59
2022/06/30 01:09:10;;;;;;;4.07;3.78;;;;;;;;;;2089744;28;20178;-57
2022/06/30 01:12:49;;;;;;;4.40;4.10;;;;;;;;;;2089984;28;20167;-56
2022/06/30 01:13:49;;;;;;;3.80;3.60;;;;;;;;;;2089439;28;20393;-59
2022/06/30 01:14:50;;;;;;;4.40;4.10;;;;;;;;;;2088734;28;20207;-54
2022/06/30 01:15:50;;;;;;;4.43;4.10;;;;;;;;;;2089566;28;20558;-50
2022/06/30 01:16:51;;;;;;;4.93;4.57;;;;;;;;;;2089912;28;20190;-58
2022/06/30 01:17:52;;;;;;;4.60;4.30;;;;;;;;;;2089618;28;20560;-57
2022/06/30 01:18:53;;;;;;;4.10;3.85;;;;;;;;;;2088036;28;20233;-56
2022/06/30 01:19:54;;;;;;;5.20;4.70;;;;;;;;;;2089817;28;20547;-55
2022/06/30 01:20:54;;;;;;;5.07;4.57;;;;;;;;;;2089265;28;20532;-57
2022/06/30 01:22:01;;;;;;;4.40;4.10;;;;;;;;;;2089295;28;20178;-55
2022/06/30 01:23:02;;;;;;;4.50;4.20;;;;;;;;;;2089199;28;20259;-57
2022/06/30 01:24:03;;;;;;;4.40;4.10;;;;;;;;;;2088351;28;20174;-56
2022/06/30 01:25:04;;;;;;;5.15;4.85;;;;;;;;;;2089049;28;20182;-51
2022/06/30 01:26:04;;;;;;;4.80;4.43;;;;;;;;;;2089609;28;20593;-52
2022/06/30 01:27:05;;;;;;;4.28;4.07;;;;;;;;;;2089925;28;20175;-53
2022/06/30 01:28:05;;;;;;;5.43;5.00;;;;;;;;;;2090037;28;20656;-51
2022/06/30 01:29:06;;;;;;;4.80;4.47;;;;;;;;;;2088331;28;20179;-52
2022/06/30 01:30:07;;;;;;;4.68;4.40;;;;;;;;;;2089856;28;20207;-55
2022/06/30 01:31:07;;;;;;;4.50;4.20;;;;;;;;;;2089655;28;20741;-49
2022/06/30 01:32:08;;;;;;;4.05;3.85;;;;;;;;;;2089901;28;20176;-56
2022/06/30 01:33:08;;;;;;;5.22;4.03;;;;;;;;;;2089647;28;20267;-56
2022/06/30 01:34:08;;;;;;;4.28;3.90;;;;;;;;;;2088894;28;20182;-55
2022/06/30 01:35:09;;;;;;;4.22;3.60;;;;;;;;;;2089662;28;20291;-52
2022/06/30 01:36:09;;;;;;;4.93;4.45;;;;;;;;;;2089161;28;20191;-54
2022/06/30 01:37:10;;;;;;;5.15;4.60;;;;;;;;;;2089011;28;20275;-54
2022/06/30 01:38:10;;;;;;;4.75;4.40;;;;;;;;;;2089912;28;20160;-53
2022/06/30 01:39:11;;;;;;;4.57;4.25;;;;;;;;;;2089012;28;20176;-56
2022/06/30 01:40:11;;;;;;;4.72;4.32;;;;;;;;;;2088969;28;20172;-52
2022/06/30 01:41:12;;;;;;;4.50;4.20;;;;;;;;;;2089322;28;20194;-54
2022/06/30 01:42:13;;;;;;;5.13;4.70;;;;;;;;;;2089750;28;20211;-55
2022/06/30 01:43:13;;;;;;;4.93;4.53;;;;;;;;;;2089463;28;20170;-55
2022/06/30 01:44:14;;;;;;;7.53;4.22;;;;;;;;;;2089034;28;20168;-56
2022/06/30 01:45:14;;;;;;;4.57;4.18;;;;;;;;;;2089893;28;20195;-52
2022/06/30 01:46:18;;;;;;;6.18;4.82;;;;;;;;;;2089569;28;20719;-55
2022/06/30 01:47:19;;;;;;;4.93;4.63;;;;;;;;;;2089527;28;20179;-48
2022/06/30 01:48:19;;;;;;;4.72;4.43;;;;;;;;;;2089665;28;20166;-52
2022/06/30 01:49:19;;;;;;;7.18;4.40;;;;;;;;;;2089662;28;20176;-51
2022/06/30 01:50:21;;;;;;;4.25;3.95;;;;;;;;;;2089543;28;20628;-53
2022/06/30 01:51:21;;;;;;;4.47;4.07;;;;;;;;;;2089839;28;20163;-51
2022/06/30 01:52:21;;;;;;;4.55;4.25;;;;;;;;;;2089388;28;20552;-53
2022/06/30 01:53:22;;;;;;;4.70;4.28;;;;;;;;;;2089071;28;20632;-52
2022/06/30 01:54:23;;;;;;;4.65;4.35;;;;;;;;;;2088207;28;20171;-52
2022/06/30 01:55:24;;;;;;;4.25;3.90;;;;;;;;;;2089628;28;20243;-53
2022/06/30 01:56:24;;;;;;;4.90;4.40;;;;;;;;;;2089674;28;20668;-49
2022/06/30 01:57:25;;;;;;;4.53;4.28;;;;;;;;;;2089708;28;20170;-53
2022/06/30 01:58:25;;;;;;;5.93;4.82;;;;;;;;;;2089679;28;20164;-53
2022/06/30 01:59:25;;;;;;;4.15;3.90;;;;;;;;;;2089833;28;20182;-51
2022/06/30 02:00:27;;;;;;;4.47;4.13;;;;;;;;;;2089517;28;20171;-50
2022/06/30 02:01:27;;;;;;;5.47;4.80;;;;;;;;;;2089912;28;20175;-55
2022/06/30 02:02:27;;;;;;;4.85;4.45;;;;;;;;;;2089416;28;20651;-53
2022/06/30 02:03:28;;;;;;;4.47;4.18;;;;;;;;;;2089216;28;20172;-52
2022/06/30 02:05:47;;;;;;;4.63;4.32;;;;;;;;;;2089700;28;20159;-50
2022/06/30 02:06:48;;;;;;;5.30;4.90;;;;;;;;;;2089485;28;20210;-51
2022/06/30 02:07:48;;;;;;;4.90;4.50;;;;;;;;;;2087390;28;20171;-59
2022/06/30 02:08:48;;;;;;;5.20;4.70;;;;;;;;;;2088842;28;20180;-55
2022/06/30 02:09:52;;;;;;;4.30;3.97;;;;;;;;;;2088945;28;20172;-52
2022/06/30 02:10:52;;;;;;;4.53;4.10;;;;;;;;;;2089383;28;20173;-52
2022/06/30 02:12:44;;;;;;;4.53;4.32;;;;;;;;;;2089548;28;20178;-58
2022/06/30 02:13:13;;;;;;;5.03;4.47;;;;;;;;;;2089017;28;20155;-52
2022/06/30 02:14:13;;;;;;;4.63;4.22;;;;;;;;;;2088225;28;20172;-50
2022/06/30 02:15:18;;;;;;;4.82;4.53;;;;;;;;;;2089313;28;20670;-55
2022/06/30 02:16:18;;;;;;;4.97;4.68;;;;;;;;;;2088838;28;20207;-52
2022/06/30 02:17:19;;;;;;;4.75;4.45;;;;;;;;;;2089164;28;20188;-57
2022/06/30 02:18:19;;;;;;;4.43;4.20;;;;;;;;;;2087619;28;20167;-53
2022/06/30 02:19:19;;;;;;;5.15;4.65;;;;;;;;;;2089631;28;20178;-52
2022/06/30 02:20:22;;;;;;;4.35;4.05;;;;;;;;;;2089580;28;20175;-54
2022/06/30 02:21:23;;;;;;;5.45;4.70;;;;;;;;;;2089531;28;20172;-55
2022/06/30 02:22:23;;;;;;;5.20;4.20;;;;;;;;;;2089417;28;20218;-55
2022/06/30 02:23:23;;;;;;;5.28;4.85;;;;;;;;;;2089532;28;20628;-53
2022/06/30 02:24:24;;;;;;;5.65;5.05;;;;;;;;;;2088480;28;20733;-55
2022/06/30 02:25:25;;;;;;;4.70;4.40;;;;;;;;;;2089552;28;20160;-55
2022/06/30 02:26:25;;;;;;;4.72;4.32;;;;;;;;;;2089498;28;20242;-56
2022/06/30 02:27:26;;;;;;;4.95;4.03;;;;;;;;;;2089511;28;20245;-56
2022/06/30 02:28:26;;;;;;;5.00;4.50;;;;;;;;;;2089429;28;20710;-56
2022/06/30 02:29:26;;;;;;;4.85;4.50;;;;;;;;;;2089671;28;20179;-53
2022/06/30 02:30:27;;;;;;;4.95;4.60;;;;;;;;;;2089584;28;20168;-52
2022/06/30 02:31:27;;;;;;;4.72;4.32;;;;;;;;;;2088870;28;20176;-54
2022/06/30 02:32:27;;;;;;;5.40;4.45;;;;;;;;;;2088669;28;20172;-50
2022/06/30 02:33:28;;;;;;;4.95;4.65;;;;;;;;;;2089366;28;20178;-53
2022/06/30 02:34:28;;;;;;;9.02;4.63;;;;;;;;;;2088394;28;20176;-57
2022/06/30 02:35:29;;;;;;;4.30;4.00;;;;;;;;;;2089589;28;20164;-56
2022/06/30 02:36:29;;;;;;;5.13;4.75;;;;;;;;;;2089228;28;20194;-53
2022/06/30 02:37:29;;;;;;;5.28;4.88;;;;;;;;;;2089653;28;20261;-54
2022/06/30 02:38:30;;;;;;;5.20;4.90;;;;;;;;;;2089144;28;20192;-54
2022/06/30 02:39:30;;;;;;;5.50;5.15;;;;;;;;;;2089602;28;20168;-58
2022/06/30 02:40:31;;;;;;;5.00;4.70;;;;;;;;;;2088864;28;20183;-50
2022/06/30 02:41:31;;;;;;;4.68;4.38;;;;;;;;;;2088845;28;20171;-55
2022/06/30 02:42:31;;;;;;;6.18;5.68;;;;;;;;;;2089588;28;20164;-51
2022/06/30 02:43:32;;;;;;;5.60;5.13;;;;;;;;;;2088393;28;20261;-54
2022/06/30 02:44:32;;;;;;;6.68;6.18;;;;;;;;;;2087830;28;20197;-54
2022/06/30 02:45:32;;;;;;;5.53;5.18;;;;;;;;;;2089237;28;20198;-54
2022/06/30 02:46:33;;;;;;;6.30;5.80;;;;;;;;;;2089423;28;20195;-57
2022/06/30 02:47:34;;;;;;;6.47;5.97;;;;;;;;;;2089210;28;20167;-55
2022/06/30 02:48:34;;;;;;;7.20;6.50;;;;;;;;;;2080869;28;20183;-52
2022/06/30 02:49:37;;;;;;;6.18;5.68;;;;;;;;;;2082149;28;20165;-55
2022/06/30 02:50:37;;;;;;;5.85;5.35;;;;;;;;;;2090784;28;20248;-57
2022/06/30 02:51:38;;;;;;;5.35;4.85;;;;;;;;;;2090748;28;20172;-53
2022/06/30 02:52:38;;;;;;;5.57;5.05;;;;;;;;;;2090417;28;20346;-56
2022/06/30 02:53:38;;;;;;;5.05;4.65;;;;;;;;;;2090316;28;20171;-56
2022/06/30 02:54:39;;;;;;;5.50;5.10;;;;;;;;;;2089988;28;20167;-53
2022/06/30 02:55:40;;;;;;;5.13;4.82;;;;;;;;;;2090351;28;20215;-56
2022/06/30 02:56:40;;;;;;;7.13;6.13;;;;;;;;;;2090793;28;20191;-58
2022/06/30 02:57:41;;;;;;;5.85;5.45;;;;;;;;;;2090694;28;20230;-51
2022/06/30 02:58:41;;;;;;;6.45;5.95;;;;;;;;;;2090944;28;20210;-53
2022/06/30 02:59:41;;;;;;;6.20;5.60;;;;;;;;;;2090862;28;20171;-56
2022/06/30 03:00:41;;;;;;;5.32;5.03;;;;;;;;;;2091031;28;20262;-57
2022/06/30 03:01:42;;;;;;;6.13;5.72;;;;;;;;;;2090689;28;20207;-56
2022/06/30 03:02:43;;;;;;;7.78;7.03;;;;;;;;;;2091004;28;20171;-50
2022/06/30 03:03:44;;;;;;;5.82;5.43;;;;;;;;;;2091568;28;20270;-58
2022/06/30 03:04:44;;;;;;;6.65;6.15;;;;;;;;;;2090914;28;20629;-54
2022/06/30 03:05:44;;;;;;;7.38;6.70;;;;;;;;;;2091527;28;20245;-57
2022/06/30 03:06:45;;;;;;;7.22;6.57;;;;;;;;;;2093629;22;20231;-53
2022/06/30 03:07:45;;;;;;;6.93;6.22;;;;;;;;;;2081834;28;20211;-54
2022/06/30 03:08:45;;;;;;;5.88;5.38;;;;;;;;;;2081287;28;20172;-55
2022/06/30 03:09:46;;;;;;;5.10;4.70;;;;;;;;;;2082458;28;20208;-52
2022/06/30 03:10:46;;;;;;;5.63;5.22;;;;;;;;;;2081456;28;20178;-57
2022/06/30 03:11:46;;;;;;;5.22;4.72;;;;;;;;;;2081714;28;20214;-57
2022/06/30 03:12:47;;;;;;;5.35;4.97;;;;;;;;;;2081812;28;20208;-50
2022/06/30 03:13:47;;;;;;;6.35;5.85;;;;;;;;;;2082398;28;20175;-57
2022/06/30 03:14:47;;;;;;;5.45;5.15;;;;;;;;;;2081658;28;20822;-52
2022/06/30 03:15:49;;;;;;;5.53;5.18;;;;;;;;;;2081384;28;20192;-53
2022/06/30 03:16:49;;;;;;;5.85;5.45;;;;;;;;;;2082288;28;20367;-57
2022/06/30 03:17:50;;;;;;;5.95;5.45;;;;;;;;;;2082444;28;20205;-56
2022/06/30 03:18:52;;;;;;;6.60;6.05;;;;;;;;;;2082587;28;20605;-54
2022/06/30 03:19:52;;;;;;;5.85;5.45;;;;;;;;;;2082771;28;20169;-56
2022/06/30 03:20:53;;;;;;;5.50;4.97;;;;;;;;;;2080439;28;20603;-56
2022/06/30 03:21:54;;;;;;;5.63;5.22;;;;;;;;;;2082261;28;20230;-59
2022/06/30 03:22:54;;;;;;;6.13;5.65;;;;;;;;;;2081988;28;20173;-55
2022/06/30 03:23:55;;;;;;;5.75;5.35;;;;;;;;;;2080520;28;20180;-52
2022/06/30 03:24:55;;;;;;;6.10;5.68;;;;;;;;;;2080996;28;20202;-51
2022/06/30 03:25:56;;;;;;;6.13;5.63;;;;;;;;;;2082113;28;20711;-58
2022/06/30 03:26:56;;;;;;;6.75;6.22;;;;;;;;;;2082121;28;20618;-56
2022/06/30 03:27:57;;;;;;;6.22;5.78;;;;;;;;;;2082284;28;20742;-53
2022/06/30 03:28:57;;;;;;;5.90;5.40;;;;;;;;;;2073597;28;20252;-55
2022/06/30 03:29:58;;;;;;;5.95;5.53;;;;;;;;;;2073668;28;20260;-53
2022/06/30 03:30:58;;;;;;;6.85;6.35;;;;;;;;;;2080830;28;20164;-56
2022/06/30 03:31:59;;;;;;;6.18;5.78;;;;;;;;;;2082016;28;20181;-53
2022/06/30 03:32:59;;;;;;;6.07;5.57;;;;;;;;;;2081326;28;20626;-52
2022/06/30 03:33:59;;;;;;;6.63;6.05;;;;;;;;;;2081995;28;20329;-54
2022/06/30 03:35:00;;;;;;;6.57;5.93;;;;;;;;;;2082660;28;20192;-58
2022/06/30 03:36:00;;;;;;;6.38;5.93;;;;;;;;;;2083159;28;20539;-56
2022/06/30 03:37:01;;;;;;;5.82;5.43;;;;;;;;;;2074847;28;20224;-57
2022/06/30 03:38:03;;;;;;;5.50;5.10;;;;;;;;;;2075070;28;20188;-59
2022/06/30 03:39:04;;;;;;;5.82;5.32;;;;;;;;;;2075128;28;20177;-58
2022/06/30 03:40:04;;;;;;;5.55;5.05;;;;;;;;;;2075271;28;20615;-57
2022/06/30 03:41:05;;;;;;;5.78;5.20;;;;;;;;;;2077543;28;20240;-54
2022/06/30 03:42:05;;;;;;;5.32;4.93;;;;;;;;;;2082159;28;20176;-58
2022/06/30 03:43:06;;;;;;;5.00;4.68;;;;;;;;;;2082327;28;20264;-57
2022/06/30 03:44:07;;;;;;;5.20;4.72;;;;;;;;;;2082175;28;20168;-55
2022/06/30 03:45:08;;;;;;;5.72;5.32;;;;;;;;;;2082563;28;20309;-56
2022/06/30 03:46:08;;;;;;;5.22;4.93;;;;;;;;;;2082597;28;20176;-57
2022/06/30 03:47:09;;;;;;;5.15;4.85;;;;;;;;;;2082256;28;20192;-57
2022/06/30 03:48:09;;;;;;;5.88;5.32;;;;;;;;;;2082530;28;20218;-57
2022/06/30 03:49:10;;;;;;;5.55;5.05;;;;;;;;;;2082471;28;20547;-54
2022/06/30 03:50:10;;;;;;;5.30;4.90;;;;;;;;;;2081781;28;20173;-56
2022/06/30 03:51:11;;;;;;;5.80;5.38;;;;;;;;;;2082542;28;20172;-59
2022/06/30 03:52:11;;;;;;;5.80;5.40;;;;;;;;;;2081726;28;20175;-57
2022/06/30 03:53:12;;;;;;;5.55;5.15;;;;;;;;;;2082178;28;20202;-56
2022/06/30 03:54:12;;;;;;;6.13;5.72;;;;;;;;;;2081868;28;20180;-54
2022/06/30 03:55:12;;;;;;;6.40;5.80;;;;;;;;;;2082471;28;20192;-57
2022/06/30 03:56:13;;;;;;;6.15;5.75;;;;;;;;;;2080978;28;20171;-61
2022/06/30 03:57:13;;;;;;;6.10;5.70;;;;;;;;;;2074447;28;20203;-59
2022/06/30 03:58:14;;;;;;;6.45;5.95;;;;;;;;;;2074529;28;20173;-57
2022/06/30 03:59:14;;;;;;;5.93;5.50;;;;;;;;;;2073994;28;20227;-56
2022/06/30 04:00:14;;;;;;;6.78;6.18;;;;;;;;;;2074782;28;20169;-56
2022/06/30 04:01:15;;;;;;;6.30;5.90;;;;;;;;;;2075018;28;20177;-55
2022/06/30 04:02:15;;;;;;;5.95;5.45;;;;;;;;;;2074818;28;20180;-56
2022/06/30 04:03:15;;;;;;;6.45;5.80;;;;;;;;;;2074671;28;20583;-56
2022/06/30 04:04:16;;;;;;;6.47;5.88;;;;;;;;;;2073835;28;20252;-56
2022/06/30 04:05:16;;;;;;;6.20;5.68;;;;;;;;;;2075045;28;20176;-59
2022/06/30 04:06:16;;;;;;;6.30;5.85;;;;;;;;;;2079973;28;20168;-57
2022/06/30 04:07:17;;;;;;;5.80;5.40;;;;;;;;;;2080577;28;20569;-56
2022/06/30 04:08:17;;;;;;;6.35;5.80;;;;;;;;;;2082873;28;20176;-55
2022/06/30 04:09:17;;;;;;;6.80;6.20;;;;;;;;;;2082696;28;20219;-55
2022/06/30 04:10:18;;;;;;;6.38;5.88;;;;;;;;;;2082551;28;20168;-57
2022/06/30 04:11:18;;;;;;;6.50;5.38;;;;;;;;;;2081343;28;20179;-59
2022/06/30 04:12:18;;;;;;;6.53;5.78;;;;;;;;;;2075248;28;20172;-59
2022/06/30 04:13:19;;;;;;;6.88;6.25;;;;;;;;;;2075678;28;20528;-58
2022/06/30 04:14:19;;;;;;;8.32;6.63;;;;;;;;;;2073727;28;20616;-58
2022/06/30 04:15:20;;;;;;;5.60;5.20;;;;;;;;;;2079053;28;20196;-56
2022/06/30 04:16:21;;;;;;;8.02;5.68;;;;;;;;;;2082597;28;20172;-56
2022/06/30 04:17:21;;;;;;;6.57;6.03;;;;;;;;;;2083217;28;20175;-56
2022/06/30 04:18:22;;;;;;;6.25;5.70;;;;;;;;;;2083288;28;20661;-54
2022/06/30 04:19:23;;;;;;;5.72;5.22;;;;;;;;;;2081848;28;20179;-59
2022/06/30 04:20:23;;;;;;;6.45;5.95;;;;;;;;;;2073574;28;20196;-56
2022/06/30 04:21:23;;;;;;;5.88;5.47;;;;;;;;;;2073282;28;20219;-54
2022/06/30 04:22:24;;;;;;;6.20;5.70;;;;;;;;;;2081866;28;20172;-59
2022/06/30 04:23:24;;;;;;;5.53;5.07;;;;;;;;;;2081635;28;20203;-58
2022/06/30 04:24:25;;;;;;;5.78;5.28;;;;;;;;;;2081237;28;20218;-55
2022/06/30 04:25:25;;;;;;;5.78;5.38;;;;;;;;;;2082675;28;20179;-57
2022/06/30 04:26:25;;;;;;;6.28;5.75;;;;;;;;;;2082243;28;20679;-54
2022/06/30 04:27:25;;;;;;;5.45;5.05;;;;;;;;;;2082629;28;20172;-56
2022/06/30 04:28:26;;;;;;;5.90;5.40;;;;;;;;;;2082437;28;20306;-56
2022/06/30 04:29:26;;;;;;;5.97;5.47;;;;;;;;;;2082324;28;20239;-52
2022/06/30 04:33:05;;;;;;;7.25;6.57;;;;;;;;;;2081971;28;20259;-57
2022/06/30 04:34:05;;;;;;;6.35;5.95;;;;;;;;;;2081356;28;20172;-56
2022/06/30 04:35:07;;;;;;;8.05;6.20;;;;;;;;;;2077705;28;20205;-56
2022/06/30 04:36:07;;;;;;;6.57;6.03;;;;;;;;;;2078485;28;20168;-59
2022/06/30 04:37:07;;;;;;;6.32;5.82;;;;;;;;;;2073388;28;20193;-54
2022/06/30 04:38:08;;;;;;;6.07;5.63;;;;;;;;;;2081371;28;20255;-58
2022/06/30 04:39:08;;;;;;;6.78;6.28;;;;;;;;;;2075047;28;20172;-54
2022/06/30 04:41:28;;;;;;;5.60;5.25;;;;;;;;;;2073948;28;20161;-60
2022/06/30 04:42:28;;;;;;;7.22;6.55;;;;;;;;;;2073940;28;20169;-58
2022/06/30 04:43:28;;;;;;;7.22;6.60;;;;;;;;;;2074301;28;20161;-56
2022/06/30 04:44:29;;;;;;;7.82;7.25;;;;;;;;;;2073112;28;20696;-53
2022/06/30 04:45:29;;;;;;;7.43;6.85;;;;;;;;;;2074204;28;20218;-54
2022/06/30 04:46:29;;;;;;;7.85;7.25;;;;;;;;;;2073926;28;20259;-57
2022/06/30 04:47:30;;;;;;;6.97;6.47;;;;;;;;;;2074055;28;20191;-56
2022/06/30 04:48:30;;;;;;;7.18;6.68;;;;;;;;;;2065205;28;20232;-59
2022/06/30 04:49:30;;;;;;;8.95;7.20;;;;;;;;;;2065251;28;20260;-57
2022/06/30 04:50:31;;;;;;;7.35;6.78;;;;;;;;;;2079877;28;20208;-54
2022/06/30 04:51:31;;;;;;;7.45;6.75;;;;;;;;;;2082177;28;20175;-51
2022/06/30 04:52:32;;;;;;;7.30;6.70;;;;;;;;;;2081734;28;20267;-55
2022/06/30 04:53:32;;;;;;;7.85;7.03;;;;;;;;;;2081457;28;20196;-57
2022/06/30 04:54:33;;;;;;;7.90;7.07;;;;;;;;;;2073027;28;20215;-56
2022/06/30 04:55:33;;;;;;;7.57;6.97;;;;;;;;;;2077883;28;20227;-57
2022/06/30 04:56:34;;;;;;;7.68;7.07;;;;;;;;;;2083047;28;20199;-56
2022/06/30 04:57:34;;;;;;;8.05;7.28;;;;;;;;;;2080930;28;20177;-53
2022/06/30 04:58:35;;;;;;;7.50;6.82;;;;;;;;;;2076532;28;20272;-55
2022/06/30 04:59:35;;;;;;;7.55;6.88;;;;;;;;;;2078712;28;20271;-54
2022/06/30 05:00:36;;;;;;;7.43;6.82;;;;;;;;;;2080024;28;20176;-53
2022/06/30 05:01:36;;;;;;;7.40;6.93;;;;;;;;;;2077892;28;20243;-54
2022/06/30 05:02:37;;;;;;;7.32;6.72;;;;;;;;;;2073995;28;20188;-57
2022/06/30 05:03:37;;;;;;;7.18;6.68;;;;;;;;;;2077495;28;20707;-57
2022/06/30 05:04:37;;;;;;;7.15;6.45;;;;;;;;;;2078077;28;20648;-55
2022/06/30 05:05:38;;;;;;;7.63;6.88;;;;;;;;;;2081685;28;20172;-55
2022/06/30 05:06:38;;;;;;;6.72;6.13;;;;;;;;;;2081239;28;20266;-50
2022/06/30 05:07:38;;;;;;;6.88;6.25;;;;;;;;;;2081706;28;20226;-54
2022/06/30 05:08:39;;;;;;;8.48;6.97;;;;;;;;;;2081968;28;20186;-51
2022/06/30 05:09:43;;;;;;;7.00;6.50;;;;;;;;;;2081675;28;20179;-56
2022/06/30 05:10:43;;;;;;;7.28;6.70;;;;;;;;;;2076619;28;20172;-50
2022/06/30 05:11:43;;;;;;;6.35;5.70;;;;;;;;;;2081410;28;20251;-57
2022/06/30 05:12:44;;;;;;;7.40;6.80;;;;;;;;;;2081699;28;20180;-56
2022/06/30 05:13:44;;;;;;;7.10;6.60;;;;;;;;;;2082056;28;20694;-51
2022/06/30 05:14:44;;;;;;;7.10;6.43;;;;;;;;;;2080793;28;20645;-51
2022/06/30 05:15:45;;;;;;;6.90;6.30;;;;;;;;;;2082186;28;20196;-54
2022/06/30 05:16:45;;;;;;;7.05;5.93;;;;;;;;;;2081832;28;20200;-57
2022/06/30 05:17:46;;;;;;;6.43;5.78;;;;;;;;;;2081776;28;20156;-52
2022/06/30 05:18:46;;;;;;;7.57;6.72;;;;;;;;;;2082763;28;20179;-53
2022/06/30 05:19:47;;;;;;;7.10;6.45;;;;;;;;;;2082829;28;20175;-56
2022/06/30 05:20:47;;;;;;;6.90;6.38;;;;;;;;;;2082604;28;20168;-53
2022/06/30 05:21:48;;;;;;;6.90;6.40;;;;;;;;;;2082924;28;20183;-55
2022/06/30 05:22:48;;;;;;;7.18;6.40;;;;;;;;;;2082424;28;20168;-54
2022/06/30 05:26:28;;;;;;;6.75;6.18;;;;;;;;;;2082211;28;20175;-54
2022/06/30 05:26:30;;;;;;;6.80;6.30;;;;;;;;;;2082880;28;20168;-54
2022/06/30 05:27:31;;;;;;;7.60;7.00;;;;;;;;;;2082586;28;20532;-56
2022/06/30 05:28:31;;;;;;;7.97;7.28;;;;;;;;;;2082807;28;20172;-58
2022/06/30 05:29:31;;;;;;;7.43;6.93;;;;;;;;;;2082099;28;20168;-54
2022/06/30 05:30:32;;;;;;;7.28;6.75;;;;;;;;;;2082052;28;20164;-56
2022/06/30 05:31:32;;;;;;;7.47;6.82;;;;;;;;;;2080964;28;20196;-55
2022/06/30 05:32:32;;;;;;;7.63;6.72;;;;;;;;;;2077588;28;20662;-57
2022/06/30 05:33:32;;;;;;;8.23;7.57;;;;;;;;;;2073339;28;20181;-58
2022/06/30 05:34:33;;;;;;;7.35;6.72;;;;;;;;;;2072607;28;20172;-55
2022/06/30 05:35:34;;;;;;;7.07;6.57;;;;;;;;;;2078620;28;20569;-55
2022/06/30 05:36:34;;;;;;;12.18;9.80;;;;;;;;;;2075217;28;20215;-57
2022/06/30 05:37:34;;;;;;;7.57;6.88;;;;;;;;;;2079735;28;20192;-54
2022/06/30 05:38:35;;;;;;;9.90;9.10;;;;;;;;;;2080261;28;20188;-59
2022/06/30 05:39:35;;;;;;;7.78;7.10;;;;;;;;;;2074769;28;20173;-59
2022/06/30 05:40:35;;;;;;;7.53;6.85;;;;;;;;;;2077548;28;20541;-54
2022/06/30 05:41:36;;;;;;;7.35;6.85;;;;;;;;;;2081034;28;20266;-53
2022/06/30 05:42:36;;;;;;;7.75;6.90;;;;;;;;;;2073905;28;20251;-54
2022/06/30 05:43:36;;;;;;;7.97;7.30;;;;;;;;;;2073682;28;20192;-59
2022/06/30 05:44:37;;;;;;;8.82;7.88;;;;;;;;;;2072756;28;20173;-57
2022/06/30 05:45:37;;;;;;;9.23;8.13;;;;;;;;;;2074553;28;20180;-59
2022/06/30 05:46:38;;;;;;;6.88;6.35;;;;;;;;;;2073388;28;20188;-57
2022/06/30 05:47:48;;;;;;;16.92;15.20;;;;;;;;;;2073804;28;20226;-58
2022/06/30 05:48:48;;;;;;;8.05;7.35;;;;;;;;;;2073721;28;20642;-57
2022/06/30 05:49:49;;;;;;;7.78;7.10;;;;;;;;;;2076693;28;20295;-56
2022/06/30 05:50:49;;;;;;;7.38;6.68;;;;;;;;;;2081593;28;20180;-56
2022/06/30 05:51:50;;;;;;;8.57;7.85;;;;;;;;;;2081089;28;20172;-59
2022/06/30 05:52:53;;;;;;;11.50;10.38;;;;;;;;;;2081501;28;20176;-60
2022/06/30 05:53:53;;;;;;;10.10;9.23;;;;;;;;;;2081155;28;20168;-59
2022/06/30 05:54:56;;;;;;;11.63;10.43;;;;;;;;;;2080966;28;20204;-58
2022/06/30 05:55:56;;;;;;;9.10;8.40;;;;;;;;;;2081569;28;20164;-55
2022/06/30 05:56:56;;;;;;;7.95;7.05;;;;;;;;;;2073728;28;20209;-57
2022/06/30 05:57:58;;;;;;;8.23;7.53;;;;;;;;;;2073317;28;20177;-56
2022/06/30 05:58:59;;;;;;;10.43;9.43;;;;;;;;;;2073329;28;20169;-55
2022/06/30 05:59:59;;;;;;;8.18;7.32;;;;;;;;;;2073396;28;20188;-56
2022/06/30 06:01:00;;;;;;;11.15;9.90;;;;;;;;;;2073286;28;20603;-58
2022/06/30 06:02:00;;;;;;;11.90;10.75;;;;;;;;;;2073179;28;20549;-55
2022/06/30 06:03:01;;;;;;;11.57;10.57;;;;;;;;;;2073296;28;20196;-56
2022/06/30 06:04:02;;;;;;;8.07;7.45;;;;;;;;;;2072521;28;20169;-56
2022/06/30 06:05:03;;;;;;;10.32;9.32;;;;;;;;;;2072714;28;20175;-59
2022/06/30 06:06:03;;;;;;;7.30;6.70;;;;;;;;;;2072805;28;20295;-56
2022/06/30 06:07:04;;;;;;;7.20;6.50;;;;;;;;;;2073165;28;20203;-56
2022/06/30 06:08:05;;;;;;;8.57;7.82;;;;;;;;;;2073347;28;20608;-56
2022/06/30 06:09:06;;;;;;;6.72;6.20;;;;;;;;;;2073290;28;20172;-55
2022/06/30 06:10:06;;;;;;;7.95;6.50;;;;;;;;;;2073533;28;20700;-55
2022/06/30 06:11:07;;;;;;;7.30;6.70;;;;;;;;;;2073304;28;20276;-57
2022/06/30 06:12:07;;;;;;;7.18;6.60;;;;;;;;;;2074630;28;20173;-59
2022/06/30 06:13:09;;;;;;;6.45;5.82;;;;;;;;;;2080784;28;20594;-55